WetterOnline ( https://www.wetteronline.de )

Wetter aktuell Halle (Saale)

Aktuelles Wetter: Leipzig/Halle (136m)

6-stündlich | Neueste Meldungen
Ortszeit Temperatur Wetter
Mi, 27.10. 14:00 13.8° C bedeckt
Mi, 27.10. 8:00 8.7° C bewölkt
Mi, 27.10. 2:00 8.1° C leicht bewölkt
Di, 26.10. 20:00 10.0° C leicht bewölkt
Di, 26.10. 14:00 13.4° C bewölkt
Di, 26.10. 8:00 8.4° C bedeckt
Di, 26.10. 2:00 8.5° C leicht bewölkt
Mo, 25.10. 20:00 8.1° C leicht bewölkt
Ortszeit Temperatur Wetter
Mi, 27.10. 19:00 12.7° C bedeckt
Mi, 27.10. 18:50 13° C bewölkt
Mi, 27.10. 18:40 12.8° C -
Mi, 27.10. 18:30 12.9° C -
Mi, 27.10. 18:20 12.9° C -
Mi, 27.10. 18:10 13.0° C -
Mi, 27.10. 18:00 13.1° C bedeckt
Mi, 27.10. 17:30 13.3° C -
Mi, 27.10. 17:00 13.7° C bedeckt
Mi, 27.10. 16:30 14.0° C -
Mi, 27.10. 16:00 14.0° C bedeckt
Ortszeit Relative Feuchte Sichtweite
Mi, 27.10. 14:00 74% 60 km
Mi, 27.10. 8:00 87% 40 km
Mi, 27.10. 2:00 90% 50 km
Di, 26.10. 20:00 83% 55 km
Di, 26.10. 14:00 74% 45 km
Di, 26.10. 8:00 83% 25 km
Di, 26.10. 2:00 78% 40 km
Mo, 25.10. 20:00 81% 40 km
Ortszeit Relative Feuchte Sichtweite
Mi, 27.10. 19:00 79% 60 km
Mi, 27.10. 18:50 77% >10 km
Mi, 27.10. 18:40 78% -
Mi, 27.10. 18:30 78% 60 km
Mi, 27.10. 18:20 78% -
Mi, 27.10. 18:10 78% -
Mi, 27.10. 18:00 77% 60 km
Mi, 27.10. 17:30 76% 55 km
Mi, 27.10. 17:00 74% 60 km
Mi, 27.10. 16:30 73% 50 km
Mi, 27.10. 16:00 74% 60 km
Ortszeit Niederschlagsmenge Niederschlagsart
Mi, 27.10. 14:00 0.0 l/m2 in 6 Std. -
Mi, 27.10. 8:00 0.0 l/m2 in 12 Std. -
Mi, 27.10. 2:00 0.0 l/m2 in 6 Std. -
Di, 26.10. 20:00 0.1 l/m2 in 12 Std. -
Di, 26.10. 14:00 0.1 l/m2 in 6 Std. Regen
Di, 26.10. 8:00 0.0 l/m2 in 12 Std. -
Di, 26.10. 2:00 0.0 l/m2 in 6 Std. -
Mo, 25.10. 20:00 0.0 l/m2 in 12 Std. -
Ortszeit Niederschlagsmenge Niederschlagsart
Mi, 27.10. 19:00 0.0 l/m2 in 1 Std. -
Mi, 27.10. 18:50 keine Meldung -
Mi, 27.10. 18:40 keine Meldung -
Mi, 27.10. 18:30 0.0 l/m2 in 1 Std. -
Mi, 27.10. 18:20 keine Meldung -
Mi, 27.10. 18:10 keine Meldung -
Mi, 27.10. 18:00 0.0 l/m2 in 1 Std. -
Mi, 27.10. 17:30 0.0 l/m2 in 1 Std. -
Mi, 27.10. 17:00 0.0 l/m2 in 1 Std. -
Mi, 27.10. 16:30 0.0 l/m2 in 1 Std. -
Mi, 27.10. 16:00 0.0 l/m2 in 1 Std. -
Ortszeit Stärke Spitze Richtung
km/h Bft. km/h Grad Sektor
Mi, 27.10. 14:00 28 4 35 230° SW
Mi, 27.10. 8:00 14 3 25 210° SW
Mi, 27.10. 2:00 15 3 24 210° SW
Di, 26.10. 20:00 15 3 37 220° SW
Di, 26.10. 14:00 18 3 40 250° W
Di, 26.10. 8:00 13 3 22 200° S
Di, 26.10. 2:00 13 3 24 200° S
Mo, 25.10. 20:00 11 2 20 170° S
Ortszeit Stärke Spitze Richtung
km/h Bft. km/h Grad Sektor
Mi, 27.10. 19:00 14 3 22 210° SW
Mi, 27.10. 18:50 13 3 - 200° S
Mi, 27.10. 18:40 15 3 - 200° S
Mi, 27.10. 18:30 14 3 22 210° SW
Mi, 27.10. 18:20 14 3 - 210° SW
Mi, 27.10. 18:10 14 3 - 210° SW
Mi, 27.10. 18:00 13 3 26 240° SW
Mi, 27.10. 17:30 15 3 26 250° W
Mi, 27.10. 17:00 22 4 30 240° SW
Mi, 27.10. 16:30 20 4 30 250° W
Mi, 27.10. 16:00 18 3 32 230° SW
Ortszeit Untergrenze Bedeckung Gattung
total tief tief mittel hoch
Mi, 27.10. 14:00 600 m 8/8 7/8 Cu - -
Mi, 27.10. 8:00 840 m 7/8 7/8 Sc - -
Mi, 27.10. 2:00 9000 m 2/8 0/8 - - Ci
Di, 26.10. 20:00 3000 m 7/8 1/8 - Ac Ci
Di, 26.10. 14:00 600 m 7/8 7/8 Cu - -
Di, 26.10. 8:00 900 m 8/8 4/8 Sc Ns -
Di, 26.10. 2:00 7500 m 2/8 0/8 - - Ci
Mo, 25.10. 20:00 4500 m 6/8 6/8 - Ac -
Ortszeit Bedeckungsgrad in Achtel und Wolkenuntergrenze
Mi, 27.10. 19:00 7(780m)
Mi, 27.10. 18:50 5-7(780m)
Mi, 27.10. 18:40 -
Mi, 27.10. 18:30 -
Mi, 27.10. 18:20 -
Mi, 27.10. 18:10 -
Mi, 27.10. 18:00 7(780m)
Mi, 27.10. 17:30 -
Mi, 27.10. 17:00 7(780m)
Mi, 27.10. 16:30 -
Mi, 27.10. 16:00 7(750m)
Ortszeit Luftdruck NN (hPa) Tendenz (hPa in 3 Std.)
Mi, 27.10. 14:00 1025 - 0,4
Mi, 27.10. 8:00 1025 + 1,1
Mi, 27.10. 2:00 1024 + 0,2
Di, 26.10. 20:00 1023 + 1,3
Di, 26.10. 14:00 1021 + 0,2
Di, 26.10. 8:00 1020 + 0,7
Di, 26.10. 2:00 1019 - 0,1
Mo, 25.10. 20:00 1020 - 0,4
Ortszeit Luftdruck NN (hPa) Tendenz (hPa in 3 Std.)
Mi, 27.10. 19:00 1024 - 0,2
Mi, 27.10. 18:50 1024 keine Meldung
Mi, 27.10. 18:40 1024 keine Meldung
Mi, 27.10. 18:30 1024 - 0,3
Mi, 27.10. 18:20 1024 keine Meldung
Mi, 27.10. 18:10 1024 keine Meldung
Mi, 27.10. 18:00 1024 - 0,3
Mi, 27.10. 17:30 1024 - 0,6
Mi, 27.10. 17:00 1024 - 0,8
Mi, 27.10. 16:30 1024 - 0,7
Mi, 27.10. 16:00 1025 - 0,7
Ortszeit Schneehöhe (cm)
Mi, 27.10. 14:00 0
Mi, 27.10. 8:00 0
Mi, 27.10. 2:00 0
Di, 26.10. 20:00 0
Di, 26.10. 14:00 0
Di, 26.10. 8:00 0
Di, 26.10. 2:00 0
Mo, 25.10. 20:00 0
Ortszeit Schneehöhe (cm)
Mi, 27.10. 19:00 0
Mi, 27.10. 18:50 -
Mi, 27.10. 18:40 0
Mi, 27.10. 18:30 0
Mi, 27.10. 18:20 0
Mi, 27.10. 18:10 0
Mi, 27.10. 18:00 0
Mi, 27.10. 17:30 0
Mi, 27.10. 17:00 0
Mi, 27.10. 16:30 0
Mi, 27.10. 16:00 0
Link zu dieser Seite / Seite empfehlen

Das Wetter in ...